Time;durP1;ratioP1;P1;durP2;ratioP2;P2;SDS_P1;SDS_P2;PMS_P1;PMS_P2;Temp;Humidity;BMP_temperature;BMP_pressure;BME280_temperature;BME280_humidity;BME280_pressure;Samples;Min_cycle;Max_cycle;Signal;HPM_P1;HPM_P2
2023/06/26 00:01:14;;;;;;;;;6.00;4.33;;;;;25.17;100.00;101413.84;5055525;28;52648;-78
2023/06/26 00:03:39;;;;;;;;;7.00;3.00;;;;;25.12;100.00;101418.56;5056136;28;57192;-76
2023/06/26 00:06:05;;;;;;;;;5.00;3.33;;;;;25.05;100.00;101420.59;5055890;28;64971;-78
2023/06/26 00:08:30;;;;;;;;;3.67;3.67;;;;;24.99;100.00;101415.44;5056489;28;45351;-77
2023/06/26 00:10:55;;;;;;;;;5.67;5.00;;;;;24.97;100.00;101425.41;5056574;28;45398;-76
2023/06/26 00:13:22;;;;;;;;;5.67;3.33;;;;;24.96;100.00;101434.47;5056224;28;46180;-78
2023/06/26 00:15:47;;;;;;;;;6.00;4.00;;;;;24.92;100.00;101438.22;5056722;28;45340;-77
2023/06/26 00:18:13;;;;;;;;;3.00;3.00;;;;;24.92;100.00;101429.25;5056538;28;45500;-76
2023/06/26 00:20:38;;;;;;;;;5.00;3.33;;;;;24.95;100.00;101442.66;5055959;28;61168;-77
2023/06/26 00:23:07;;;;;;;;;5.67;4.00;;;;;24.98;100.00;101447.91;5055747;28;65710;-76
2023/06/26 00:25:33;;;;;;;;;5.00;5.00;;;;;24.98;100.00;101434.41;5056324;28;45435;-76
2023/06/26 00:27:58;;;;;;;;;4.00;4.00;;;;;24.95;100.00;101437.25;5056517;28;45509;-76
2023/06/26 00:30:23;;;;;;;;;3.00;3.00;;;;;24.93;100.00;101436.41;5055699;28;54870;-77
2023/06/26 00:32:49;;;;;;;;;5.00;4.00;;;;;24.95;100.00;101437.25;5056004;28;47361;-77
2023/06/26 00:35:14;;;;;;;;;3.33;3.33;;;;;24.92;100.00;101438.22;5055137;28;45467;-78
2023/06/26 00:37:39;;;;;;;;;3.00;3.00;;;;;24.91;100.00;101444.56;5055673;28;45973;-76
2023/06/26 00:40:05;;;;;;;;;7.00;3.67;;;;;24.91;100.00;101447.28;5056441;28;45341;-77
2023/06/26 00:42:30;;;;;;;;;5.00;2.00;;;;;24.89;100.00;101449.16;5056130;28;46569;-77
2023/06/26 00:44:56;;;;;;;;;6.33;3.00;;;;;24.86;100.00;101456.50;5055148;28;66265;-77
2023/06/26 00:47:21;;;;;;;;;4.00;4.00;;;;;24.81;100.00;101454.84;5055035;28;45456;-76
2023/06/26 00:49:47;;;;;;;;;7.00;4.00;;;;;24.78;100.00;101462.22;5055050;28;55275;-76
2023/06/26 00:52:12;;;;;;;;;3.00;3.00;;;;;24.70;100.00;101461.59;5056050;28;51021;-76
2023/06/26 00:54:38;;;;;;;;;8.00;4.33;;;;;24.62;100.00;101459.22;5055122;28;58543;-75
2023/06/26 00:57:03;;;;;;;;;4.00;2.67;;;;;24.54;100.00;101464.88;5056289;28;48055;-76
2023/06/26 00:59:29;;;;;;;;;3.67;3.00;;;;;24.46;100.00;101464.28;5058671;28;45364;-76
2023/06/26 01:01:54;;;;;;;;;5.00;4.00;;;;;24.40;100.00;101471.75;5041290;28;46522;-76
2023/06/26 01:04:20;;;;;;;;;3.33;2.00;;;;;24.36;100.00;101470.97;5059528;28;53701;-76
2023/06/26 01:06:49;;;;;;;;;3.67;3.67;;;;;24.26;100.00;101469.50;5059068;28;55884;-76
2023/06/26 01:09:21;;;;;;;;;4.67;3.00;;;;;24.22;100.00;101473.22;5059681;28;45470;-78
2023/06/26 01:11:47;;;;;;;;;5.00;3.33;;;;;24.18;100.00;101479.66;5059272;28;46668;-76
2023/06/26 01:14:12;;;;;;;;;5.00;4.00;;;;;24.21;100.00;101477.75;5059224;28;45467;-77
2023/06/26 01:16:39;;;;;;;;;5.33;2.67;;;;;24.24;100.00;101476.78;5059637;28;45300;-76
2023/06/26 01:19:11;;;;;;;;;6.00;4.00;;;;;24.23;100.00;101481.25;5059315;28;45555;-77
2023/06/26 01:21:41;;;;;;;;;4.00;4.00;;;;;24.21;100.00;101482.28;5058950;28;47868;-77
2023/06/26 01:24:20;;;;;;;;;5.67;5.33;;;;;24.17;100.00;101488.69;5059338;28;45325;-76
2023/06/26 01:26:47;;;;;;;;;5.33;3.33;;;;;24.04;100.00;101494.53;5059613;28;45331;-76
2023/06/26 01:29:13;;;;;;;;;3.33;3.00;;;;;23.93;100.00;101494.03;5059571;28;45325;-76
2023/06/26 01:31:39;;;;;;;;;4.00;2.67;;;;;23.83;100.00;101499.78;5040949;28;46702;-77
2023/06/26 01:34:04;;;;;;;;;3.00;3.00;;;;;23.72;100.00;101501.00;5041033;28;45368;-76
2023/06/26 01:36:30;;;;;;;;;4.67;4.00;;;;;23.59;100.00;101499.59;5041066;28;45501;-77
2023/06/26 01:38:55;;;;;;;;;3.00;3.00;;;;;23.55;100.00;101500.66;5040823;28;45442;-75
2023/06/26 01:41:21;;;;;;;;;6.67;5.00;;;;;23.52;100.00;101503.44;5059083;28;47107;-76
2023/06/26 01:44:10;;;;;;;;;5.67;4.00;;;;;23.50;100.00;101516.97;5058627;28;45349;-76
2023/06/26 01:46:58;;;;;;;;;7.00;4.00;;;;;23.51;100.00;101517.84;5059056;28;45475;-76
2023/06/26 01:50:02;;;;;;;;;3.00;3.00;;;;;23.50;100.00;101519.66;5058722;28;45399;-75
2023/06/26 01:52:37;;;;;;;;;3.00;3.00;;;;;23.41;100.00;101527.16;5040217;28;47028;-75
2023/06/26 01:55:02;;;;;;;;;2.00;2.00;;;;;23.37;100.00;101537.13;5040731;28;45371;-76
2023/06/26 01:57:28;;;;;;;;;4.67;2.00;;;;;23.32;100.00;101533.69;5058848;28;45299;-77
2023/06/26 01:59:54;;;;;;;;;2.67;2.67;;;;;23.22;100.00;101521.44;5059045;28;45400;-75
2023/06/26 02:02:20;;;;;;;;;6.33;3.00;;;;;23.18;100.00;101533.25;5058839;28;46666;-76
2023/06/26 02:04:47;;;;;;;;;1.67;1.67;;;;;23.13;100.00;101530.69;5058545;28;55484;-76
2023/06/26 02:07:12;;;;;;;;;4.00;2.00;;;;;23.04;100.00;101535.47;5058792;28;45281;-76
2023/06/26 02:09:38;;;;;;;;;1.33;1.00;;;;;22.95;100.00;101544.69;5058079;28;55689;-76
2023/06/26 02:12:03;;;;;;;;;2.00;2.00;;;;;22.85;100.00;101544.06;5058384;28;46499;-76
2023/06/26 02:14:29;;;;;;;;;4.00;2.67;;;;;22.79;100.00;101554.09;5058649;28;45190;-76
2023/06/26 02:16:54;;;;;;;;;3.00;3.00;;;;;22.73;100.00;101537.19;5058058;28;55342;-75
2023/06/26 02:19:21;;;;;;;;;3.33;2.00;;;;;22.73;100.00;101552.47;5058014;28;56118;-76
2023/06/26 02:21:48;;;;;;;;;5.33;3.00;;;;;22.69;100.00;101556.16;5058149;28;46937;-76
2023/06/26 02:24:13;;;;;;;;;3.00;1.00;;;;;22.65;100.00;101554.50;5058515;28;45352;-75
2023/06/26 02:26:38;;;;;;;;;0.67;0.67;;;;;22.61;100.00;101552.81;5042429;28;45328;-76
2023/06/26 02:29:04;;;;;;;;;4.67;1.33;;;;;22.54;100.00;101557.50;5059387;28;45287;-77
2023/06/26 02:31:29;;;;;;;;;2.00;1.00;;;;;22.54;100.00;101553.91;5057673;28;65040;-76
2023/06/26 02:33:54;;;;;;;;;2.67;1.00;;;;;22.50;100.00;101553.09;5056871;28;61431;-76
2023/06/26 02:36:20;;;;;;;;;1.00;1.00;;;;;22.49;100.00;101562.13;5058490;28;45365;-76
2023/06/26 02:38:45;;;;;;;;;1.00;1.00;;;;;22.46;100.00;101560.38;5058551;28;45283;-76
2023/06/26 02:41:10;;;;;;;;;1.00;1.00;;;;;22.49;100.00;101567.50;5058034;28;46673;-76
2023/06/26 02:43:36;;;;;;;;;1.00;1.00;;;;;22.53;100.00;101574.56;5058073;28;45211;-75
2023/06/26 02:46:01;;;;;;;;;2.33;2.00;;;;;22.54;100.00;101570.94;5058164;28;45505;-77
2023/06/26 02:48:27;;;;;;;;;1.00;1.00;;;;;22.54;100.00;101567.38;5057755;28;51807;-77
2023/06/26 02:50:52;;;;;;;;;4.00;1.00;;;;;22.55;100.00;101574.53;5057815;28;47432;-77
2023/06/26 02:53:17;;;;;;;;;3.00;1.67;;;;;22.51;100.00;101572.84;5056970;28;60437;-76
2023/06/26 02:55:43;;;;;;;;;2.00;2.00;;;;;22.42;100.00;101571.25;5057873;28;45651;-76
2023/06/26 02:58:08;;;;;;;;;3.00;3.00;;;;;22.37;100.00;101578.56;5057822;28;45543;-76
2023/06/26 03:00:33;;;;;;;;;2.00;2.00;;;;;22.33;100.00;101582.28;5057592;28;47586;-76
2023/06/26 03:02:59;;;;;;;;;2.67;1.00;;;;;22.23;100.00;101581.63;5057487;28;45441;-77
2023/06/26 03:05:25;;;;;;;;;2.33;2.00;;;;;22.22;100.00;101577.16;5057929;28;45216;-76
2023/06/26 03:07:50;;;;;;;;;3.00;1.00;;;;;22.16;100.00;101575.53;5058038;28;45357;-75
2023/06/26 03:10:15;;;;;;;;;2.00;1.00;;;;;22.11;100.00;101580.13;5057620;28;47232;-75
2023/06/26 03:12:41;;;;;;;;;4.33;2.00;;;;;22.07;100.00;101578.41;5039268;28;60618;-76
2023/06/26 03:15:07;;;;;;;;;0.33;0.33;;;;;22.09;100.00;101586.41;5057753;28;45526;-76
2023/06/26 03:17:32;;;;;;;;;1.67;1.67;;;;;22.01;100.00;101589.31;5057410;28;45610;-76
2023/06/26 03:19:57;;;;;;;;;6.33;2.00;;;;;21.92;100.00;101589.53;5056722;28;45714;-76
2023/06/26 03:22:23;;;;;;;;;1.00;1.00;;;;;21.80;100.00;101577.25;5056286;28;60059;-76
2023/06/26 03:24:48;;;;;;;;;1.33;1.33;;;;;21.77;100.00;101592.56;5056827;28;60898;-75
2023/06/26 03:27:13;;;;;;;;;3.00;2.00;;;;;21.68;100.00;101594.56;5057302;28;45390;-76
2023/06/26 03:29:39;;;;;;;;;2.00;1.00;;;;;21.64;100.00;101597.34;5057255;28;45789;-76
2023/06/26 03:32:04;;;;;;;;;1.00;1.00;;;;;21.63;100.00;101596.47;5056929;28;50810;-76
2023/06/26 03:34:30;;;;;;;;;5.00;2.00;;;;;21.62;100.00;101596.50;5057265;28;45552;-77
2023/06/26 03:36:55;;;;;;;;;2.00;2.00;;;;;21.58;100.00;101602.88;5057532;28;45575;-76
2023/06/26 03:39:20;;;;;;;;;3.00;2.00;;;;;21.57;100.00;101614.50;5056410;28;51871;-75
2023/06/26 03:41:46;;;;;;;;;2.00;2.00;;;;;21.50;100.00;101611.09;5057145;28;45334;-77
2023/06/26 03:44:12;;;;;;;;;4.00;2.00;;;;;21.49;100.00;101617.38;5057431;28;45353;-77
2023/06/26 03:46:37;;;;;;;;;3.33;2.00;;;;;21.47;100.00;101618.34;5057078;28;45580;-76
2023/06/26 03:49:02;;;;;;;;;1.00;1.00;;;;;21.44;100.00;101617.47;5056651;28;46612;-76
2023/06/26 03:51:28;;;;;;;;;3.33;3.00;;;;;21.41;100.00;101624.72;5056774;28;51180;-77
2023/06/26 03:53:53;;;;;;;;;5.00;1.33;;;;;21.38;100.00;101616.75;5057321;28;45340;-76
2023/06/26 03:56:18;;;;;;;;;3.33;3.33;;;;;21.35;100.00;101631.09;5056719;28;49530;-76
2023/06/26 03:58:44;;;;;;;;;3.00;3.00;;;;;21.31;100.00;101626.75;5056667;28;46355;-75
2023/06/26 04:01:09;;;;;;;;;2.67;2.00;;;;;21.33;100.00;101630.25;5056813;28;45288;-74
2023/06/26 04:03:35;;;;;;;;;3.00;3.00;;;;;21.36;100.00;101638.28;5056488;28;56284;-76
2023/06/26 04:06:00;;;;;;;;;3.00;3.00;;;;;21.34;100.00;101637.41;5056900;28;45513;-77
2023/06/26 04:08:28;;;;;;;;;2.67;2.67;;;;;21.32;100.00;101651.78;5056174;28;61682;-76
2023/06/26 04:10:55;;;;;;;;;4.00;4.00;;;;;21.31;100.00;101660.78;5056934;28;45425;-75
2023/06/26 04:13:20;;;;;;;;;6.33;3.67;;;;;21.29;100.00;101650.00;5056695;28;45349;-76
2023/06/26 04:15:46;;;;;;;;;7.33;3.00;;;;;21.31;100.00;101653.59;5056617;28;47116;-76
2023/06/26 04:18:12;;;;;;;;;4.67;3.00;;;;;21.29;100.00;101665.25;5056834;28;47356;-76
2023/06/26 04:21:04;;;;;;;;;3.00;3.00;;;;;21.29;100.00;101663.44;5038385;28;45333;-77
2023/06/26 04:23:30;;;;;;;;;2.00;2.00;;;;;21.32;100.00;101666.09;5056617;28;45376;-76
2023/06/26 04:25:58;;;;;;;;;2.33;2.33;;;;;21.30;100.00;101667.91;5056797;28;45527;-76
2023/06/26 04:28:23;;;;;;;;;4.33;2.00;;;;;21.28;100.00;101669.72;5056468;28;47541;-76
2023/06/26 04:30:49;;;;;;;;;5.00;2.67;;;;;21.28;100.00;101674.22;5056290;28;45347;-76
2023/06/26 04:33:15;;;;;;;;;4.00;2.00;;;;;21.21;100.00;101673.47;5056691;28;53127;-76
2023/06/26 04:35:40;;;;;;;;;7.67;3.00;;;;;21.15;100.00;101671.78;5060386;28;45200;-75
2023/06/26 04:38:06;;;;;;;;;3.33;2.33;;;;;21.12;100.00;101682.56;5059589;28;46665;-76
2023/06/26 04:40:31;;;;;;;;;4.33;3.33;;;;;21.11;100.00;101678.13;5060047;28;45284;-76
2023/06/26 04:42:56;;;;;;;;;4.00;2.67;;;;;21.09;100.00;101684.41;5060229;28;45355;-76
2023/06/26 04:45:22;;;;;;;;;3.00;3.00;;;;;21.05;100.00;101677.38;5060195;28;45337;-75
2023/06/26 04:47:47;;;;;;;;;2.00;2.00;;;;;21.06;100.00;101693.44;5059071;28;61521;-75
2023/06/26 04:50:12;;;;;;;;;5.00;2.00;;;;;21.03;100.00;101692.59;5059113;28;52979;-76
2023/06/26 04:52:38;;;;;;;;;4.33;2.33;;;;;20.99;100.00;101690.91;5041596;28;45696;-77
2023/06/26 04:55:03;;;;;;;;;3.67;3.33;;;;;20.95;100.00;101691.88;5059283;28;51688;-76
2023/06/26 04:57:29;;;;;;;;;4.00;2.67;;;;;20.93;100.00;101681.13;5059384;28;46407;-76
2023/06/26 04:59:54;;;;;;;;;5.00;1.67;;;;;20.98;100.00;101687.31;5059422;28;45339;-78
2023/06/26 05:02:19;;;;;;;;;3.67;2.67;;;;;21.02;100.00;101694.41;5059611;28;45287;-77
2023/06/26 05:04:46;;;;;;;;;3.00;3.00;;;;;21.07;100.00;101697.00;5059283;28;48743;-77
2023/06/26 05:07:11;;;;;;;;;3.00;2.00;;;;;21.09;100.00;101705.91;5059470;28;46738;-76
2023/06/26 05:09:37;;;;;;;;;4.00;2.00;;;;;21.06;100.00;101705.97;5041630;28;46272;-75
2023/06/26 05:12:02;;;;;;;;;3.67;2.33;;;;;21.03;100.00;101712.28;5059569;28;45423;-76
2023/06/26 05:14:28;;;;;;;;;5.00;3.00;;;;;20.99;100.00;101717.75;5059511;28;45323;-76
2023/06/26 05:16:53;;;;;;;;;2.00;2.00;;;;;20.98;100.00;101711.47;5059043;28;53082;-75
2023/06/26 05:19:19;;;;;;;;;3.33;3.00;;;;;20.97;100.00;101717.75;5059544;28;45325;-76
2023/06/26 05:21:44;;;;;;;;;3.00;2.00;;;;;20.94;100.00;101725.88;5059164;28;49685;-76
2023/06/26 05:24:13;;;;;;;;;5.67;3.00;;;;;20.88;100.00;101721.50;5041605;28;45531;-76
2023/06/26 05:26:39;;;;;;;;;7.00;3.00;;;;;20.87;100.00;101730.47;5058928;28;47599;-77
2023/06/26 05:29:05;;;;;;;;;2.00;2.00;;;;;20.86;100.00;101728.69;5059343;28;45336;-76
2023/06/26 05:31:33;;;;;;;;;8.67;3.00;;;;;20.87;100.00;101732.25;5059407;28;45444;-77
2023/06/26 05:34:01;;;;;;;;;4.00;3.00;;;;;20.85;100.00;101732.28;5059061;28;45640;-76
2023/06/26 05:36:28;;;;;;;;;3.67;3.00;;;;;20.85;100.00;101731.41;5040922;28;47506;-76
2023/06/26 05:38:55;;;;;;;;;4.00;3.67;;;;;20.85;100.00;101724.25;5041357;28;45320;-75
2023/06/26 05:41:21;;;;;;;;;5.00;3.00;;;;;20.90;100.00;101737.59;5058839;28;45472;-76
2023/06/26 05:43:46;;;;;;;;;9.33;3.00;;;;;20.86;100.00;101726.00;5058507;28;45525;-76
2023/06/26 05:46:12;;;;;;;;;4.67;4.00;;;;;20.90;100.00;101729.53;5058590;28;47247;-76
2023/06/26 05:48:37;;;;;;;;;5.67;3.33;;;;;20.91;100.00;101728.63;5040848;28;45485;-76
2023/06/26 05:51:03;;;;;;;;;6.00;5.00;;;;;20.95;100.00;101732.16;5058756;28;45369;-76
2023/06/26 05:53:29;;;;;;;;;6.67;5.67;;;;;20.99;100.00;101740.13;5058886;28;45340;-75
2023/06/26 05:55:55;;;;;;;;;8.00;4.00;;;;;21.05;100.00;101731.06;5058470;28;46159;-77
2023/06/26 05:58:21;;;;;;;;;5.67;4.33;;;;;21.00;100.00;101725.78;5058853;28;45628;-76
2023/06/26 06:00:46;;;;;;;;;5.00;5.00;;;;;20.99;100.00;101728.50;5059306;28;45486;-76
2023/06/26 06:03:12;;;;;;;;;7.00;6.00;;;;;20.99;100.00;101728.50;5058568;28;45391;-76
2023/06/26 06:05:37;;;;;;;;;8.33;5.33;;;;;20.97;100.00;101728.50;5058563;28;47260;-77
2023/06/26 06:08:03;;;;;;;;;4.67;4.00;;;;;20.98;100.00;101737.44;5058503;28;45415;-76
2023/06/26 06:10:28;;;;;;;;;10.67;5.00;;;;;20.98;100.00;101732.94;5058778;28;45479;-77
2023/06/26 06:12:54;;;;;;;;;5.00;5.00;;;;;21.02;100.00;101732.00;5058170;28;45779;-76
2023/06/26 06:15:20;;;;;;;;;5.00;5.00;;;;;21.03;100.00;101731.06;5058317;28;46512;-75
2023/06/26 06:17:45;;;;;;;;;4.00;4.00;;;;;21.07;100.00;101730.13;5058463;28;45286;-76
2023/06/26 06:20:11;;;;;;;;;6.00;5.00;;;;;21.07;100.00;101722.06;5186359;22;57320;-76
2023/06/26 06:22:36;;;;;;;;;6.00;5.00;;;;;21.14;100.00;101736.25;5058109;28;45491;-76
2023/06/26 06:25:02;;;;;;;;;3.00;3.00;;;;;21.15;100.00;101730.88;5057389;28;47933;-77
2023/06/26 06:27:27;;;;;;;;;4.00;4.00;;;;;21.14;100.00;101734.44;5053500;28;46704;-74
2023/06/26 06:29:53;;;;;;;;;6.33;4.00;;;;;21.16;100.00;101753.25;5052594;28;45404;-76
2023/06/26 06:32:18;;;;;;;;;6.00;5.00;;;;;21.13;100.00;101767.59;5055670;28;45577;-76
2023/06/26 06:34:43;;;;;;;;;1.33;0.00;;;;;21.11;100.00;101777.50;5056242;28;52186;-76
2023/06/26 06:37:09;;;;;;;;;7.00;5.33;;;;;21.09;100.00;101781.09;5019439;28;45737;-76
2023/06/26 06:39:34;;;;;;;;;4.67;3.00;;;;;21.09;100.00;101782.03;5031865;28;45356;-75
2023/06/26 06:41:59;;;;;;;;;4.00;4.00;;;;;21.13;100.00;101781.03;5056090;28;45859;-75
2023/06/26 06:44:25;;;;;;;;;5.67;4.00;;;;;21.14;100.00;101779.22;5035529;28;47460;-75
2023/06/26 06:46:50;;;;;;;;;6.00;4.00;;;;;21.15;100.00;101778.34;5050204;28;45462;-74
2023/06/26 06:49:15;;;;;;;;;3.67;3.00;;;;;21.21;100.00;101782.72;5050527;28;49306;-74
2023/06/26 06:51:41;;;;;;;;;5.67;4.00;;;;;21.29;100.00;101778.06;5049854;28;45528;-74
2023/06/26 06:54:06;;;;;;;;;4.00;4.00;;;;;21.35;100.00;101784.25;5052044;28;51126;-75
2023/06/26 06:56:31;;;;;;;;;5.00;4.00;;;;;21.38;100.00;101773.44;5054311;28;45278;-75
2023/06/26 06:58:57;;;;;;;;;5.00;4.00;;;;;21.43;100.00;101781.44;5056963;28;45476;-76
2023/06/26 07:01:22;;;;;;;;;4.00;4.00;;;;;21.43;100.00;101773.38;5054441;28;45400;-75
2023/06/26 07:03:47;;;;;;;;;6.33;4.00;;;;;21.44;100.00;101781.41;5051349;28;67509;-76
2023/06/26 07:06:13;;;;;;;;;4.00;4.00;;;;;21.46;100.00;101775.97;5049665;28;59131;-75
2023/06/26 07:08:38;;;;;;;;;5.00;5.00;;;;;21.52;100.00;101780.34;5050349;28;45396;-75
2023/06/26 07:11:04;;;;;;;;;7.33;4.67;;;;;21.61;100.00;101782.88;5054842;28;46376;-77
2023/06/26 07:13:29;;;;;;;;;3.67;3.00;;;;;21.68;100.00;101771.09;5052906;28;64128;-75
2023/06/26 07:15:54;;;;;;;;;9.67;5.33;;;;;21.80;100.00;101778.91;5054956;28;45400;-77
2023/06/26 07:18:20;;;;;;;;;7.67;5.33;;;;;21.89;100.00;101775.13;5051749;28;63955;-75
2023/06/26 07:20:45;;;;;;;;;7.67;5.33;;;;;21.92;100.00;101783.13;5052460;28;45605;-75
2023/06/26 07:23:11;;;;;;;;;8.33;4.00;;;;;21.96;100.00;101785.75;5052451;28;60700;-74
2023/06/26 07:25:37;;;;;;;;;6.00;3.00;;;;;22.02;100.00;101786.53;5054869;28;45360;-73
2023/06/26 07:28:02;;;;;;;;;5.00;3.33;;;;;22.14;100.00;101789.84;5055078;28;45506;-73
2023/06/26 07:30:28;;;;;;;;;6.00;5.00;;;;;22.24;100.00;101785.16;5054533;28;45446;-75
2023/06/26 07:32:53;;;;;;;;;4.67;4.00;;;;;22.33;100.00;101795.75;5052877;28;47564;-76
2023/06/26 07:35:19;;;;;;;;;5.33;5.00;;;;;22.33;100.00;101784.97;5055745;28;45494;-76
2023/06/26 07:37:44;;;;;;;;;5.00;3.33;;;;;22.36;100.00;101790.25;5052935;28;45512;-75
2023/06/26 07:40:10;;;;;;;;;3.67;3.67;;;;;22.36;100.00;101798.34;5053584;28;45174;-75
2023/06/26 07:42:35;;;;;;;;;4.00;3.00;;;;;22.31;100.00;101793.97;5054654;28;47463;-76
2023/06/26 07:45:01;;;;;;;;;4.67;2.67;;;;;22.29;100.00;101799.41;5053149;28;65619;-76
2023/06/26 07:47:26;;;;;;;;;6.67;2.00;;;;;22.23;100.00;101800.44;5054193;28;45475;-76
2023/06/26 07:49:52;;;;;;;;;4.00;4.00;;;;;22.20;100.00;101803.16;5054966;28;52004;-77
2023/06/26 07:52:18;;;;;;;;;8.67;4.00;;;;;22.18;100.00;101809.53;5044546;28;68002;-75
2023/06/26 07:54:44;;;;;;;;;5.00;3.00;;;;;22.19;100.00;101803.22;5050218;28;46124;-76
2023/06/26 07:57:11;;;;;;;;;4.00;4.00;;;;;22.22;100.00;101803.16;5053250;28;45501;-76
2023/06/26 07:59:36;;;;;;;;;4.67;3.00;;;;;22.33;100.00;101802.94;5050949;28;45439;-76
2023/06/26 08:02:02;;;;;;;;;3.00;3.00;;;;;22.44;100.00;101806.25;5051667;28;63950;-75
2023/06/26 08:04:31;;;;;;;;;3.33;3.00;;;;;22.59;100.00;101807.72;5052352;28;45509;-77
2023/06/26 08:06:58;;;;;;;;;2.00;2.00;;;;;22.70;100.00;101811.91;5049579;28;45607;-76
2023/06/26 08:09:26;;;;;;;;;2.33;2.33;;;;;22.75;100.00;101817.19;5051234;28;45487;-77
2023/06/26 08:11:52;;;;;;;;;2.00;2.00;;;;;22.77;100.00;101809.97;5046594;28;46418;-79
2023/06/26 08:14:17;;;;;;;;;3.67;2.00;;;;;22.78;100.00;101817.13;5050219;28;45458;-78
2023/06/26 08:16:43;;;;;;;;;4.33;4.33;;;;;22.80;100.00;101820.66;5051659;28;47304;-81
2023/06/26 08:19:10;;;;;;;;;3.00;3.00;;;;;22.78;100.00;101824.31;5052750;28;45565;-81
2023/06/26 08:21:35;;;;;;;;;3.33;2.00;;;;;22.75;100.00;101819.91;5050095;28;47479;-79
2023/06/26 08:24:01;;;;;;;;;5.00;3.00;;;;;22.79;100.00;101810.78;5052949;28;45513;-78
2023/06/26 08:26:26;;;;;;;;;4.00;2.00;;;;;22.90;100.00;101816.84;5051989;28;45491;-77
2023/06/26 08:28:51;;;;;;;;;4.00;2.00;;;;;23.04;100.00;101818.31;5051715;28;51372;-75
2023/06/26 08:31:17;;;;;;;;;2.67;2.00;;;;;23.21;100.00;101816.06;5050495;28;52588;-76
2023/06/26 08:33:43;;;;;;;;;2.00;2.00;;;;;23.29;100.00;101813.19;5052855;28;45351;-77
2023/06/26 08:36:08;;;;;;;;;5.00;2.67;;;;;23.29;100.00;101811.38;5052126;28;45430;-79
2023/06/26 08:38:33;;;;;;;;;4.67;3.00;;;;;23.24;100.00;101798.03;5053952;28;45420;-76
2023/06/26 08:40:59;;;;;;;;;2.33;2.00;;;;;23.24;100.00;101808.81;5050731;28;46946;-77
2023/06/26 08:43:26;;;;;;;;;7.00;4.00;;;;;23.26;100.00;101809.63;5048608;28;45442;-77
2023/06/26 08:45:52;;;;;;;;;3.00;3.00;;;;;23.32;100.00;101822.06;5049696;28;45514;-76
2023/06/26 08:48:18;;;;;;;;;3.00;1.67;;;;;23.38;100.00;101813.81;5048480;28;46986;-76
2023/06/26 08:50:44;;;;;;;;;3.00;3.00;;;;;23.39;100.00;101812.03;5051533;28;46386;-77
2023/06/26 08:53:37;;;;;;;;;2.00;2.00;;;;;23.44;100.00;101810.09;5029444;28;50690;-75
2023/06/26 08:56:03;;;;;;;;;5.33;4.00;;;;;23.51;100.00;101807.19;5052378;28;45324;-76
2023/06/26 08:58:28;;;;;;;;;2.00;2.00;;;;;23.58;100.00;101807.91;5031547;28;68116;-76
2023/06/26 09:00:55;;;;;;;;;3.33;3.00;;;;;23.60;100.00;101818.66;5037078;28;55293;-75
2023/06/26 09:03:21;;;;;;;;;2.00;2.00;;;;;23.62;100.00;101808.72;5032328;28;45438;-73
2023/06/26 09:05:47;;;;;;;;;3.00;1.00;;;;;23.70;100.00;101812.09;5053281;28;45491;-73
2023/06/26 09:08:13;;;;;;;;;4.00;2.67;;;;;23.75;99.89;101813.72;5052371;28;45490;-75
2023/06/26 09:10:38;;;;;;;;;2.00;2.00;;;;;23.84;100.00;101823.38;5034441;28;46625;-74
2023/06/26 09:13:04;;;;;;;;;3.00;3.00;;;;;23.93;97.92;101819.56;5034990;28;45494;-75
2023/06/26 09:15:42;;;;;;;;;2.00;2.00;;;;;23.99;98.12;101813.97;5036093;28;46134;-76
2023/06/26 09:18:07;;;;;;;;;3.67;3.00;;;;;23.98;97.41;101812.22;5051137;28;45500;-75
2023/06/26 09:20:33;;;;;;;;;3.00;3.00;;;;;23.95;96.83;101823.97;5048613;28;46671;-75
2023/06/26 09:22:58;;;;;;;;;5.67;2.67;;;;;23.87;94.93;101814.34;5054991;28;45451;-75
2023/06/26 09:25:24;;;;;;;;;2.67;2.00;;;;;23.82;94.90;101803.69;5054611;28;61347;-75
2023/06/26 09:27:49;;;;;;;;;3.33;3.00;;;;;23.82;93.72;101809.06;5055603;28;45505;-74
2023/06/26 09:30:17;;;;;;;;;2.00;2.00;;;;;23.81;93.80;101804.59;5052784;28;58670;-74
2023/06/26 09:32:42;;;;;;;;;2.00;2.00;;;;;23.83;92.89;101805.44;5054855;28;45404;-76
2023/06/26 09:35:07;;;;;;;;;3.00;1.33;;;;;23.85;92.30;101802.69;5054111;28;64670;-75
2023/06/26 09:37:34;;;;;;;;;4.67;4.00;;;;;23.89;91.24;101807.94;5050389;28;64792;-74
2023/06/26 09:39:59;;;;;;;;;3.00;0.00;;;;;23.94;91.85;101806.00;5055793;28;46363;-75
2023/06/26 09:42:25;;;;;;;;;6.00;2.00;;;;;23.99;91.06;101809.47;5054619;28;45822;-75
2023/06/26 09:44:51;;;;;;;;;3.00;2.00;;;;;23.97;91.57;101805.03;5037165;28;65952;-75
2023/06/26 09:47:18;;;;;;;;;2.00;2.00;;;;;24.01;90.78;101815.69;5057967;28;45454;-74
2023/06/26 09:49:44;;;;;;;;;2.00;2.00;;;;;23.98;89.38;101821.19;5057482;28;45743;-74
2023/06/26 09:52:13;;;;;;;;;2.67;1.67;;;;;23.99;88.49;101814.84;5056500;28;45626;-75
2023/06/26 09:54:39;;;;;;;;;3.67;2.00;;;;;24.04;88.65;101823.69;5037532;28;45543;-73
2023/06/26 09:57:08;;;;;;;;;3.00;2.00;;;;;24.08;90.08;101826.31;5056315;28;45364;-75
2023/06/26 09:59:34;;;;;;;;;2.33;1.33;;;;;24.07;89.61;101829.94;5039034;28;48893;-75
2023/06/26 10:02:00;;;;;;;;;1.33;1.00;;;;;24.07;89.62;101838.03;5055429;28;58235;-74
2023/06/26 10:04:25;;;;;;;;;3.00;2.00;;;;;24.09;89.59;101830.78;5055612;28;45350;-75
2023/06/26 10:06:52;;;;;;;;;2.00;2.00;;;;;24.17;89.07;101831.44;5057142;28;45595;-74
2023/06/26 10:09:18;;;;;;;;;2.00;2.00;;;;;24.25;88.55;101834.78;5036485;28;46458;-74
2023/06/26 10:11:49;;;;;;;;;2.00;2.00;;;;;24.27;86.95;101830.22;5038823;28;45518;-74
2023/06/26 10:14:16;;;;;;;;;3.00;3.00;;;;;24.19;86.56;101829.59;5037836;28;45597;-74
2023/06/26 10:16:43;;;;;;;;;1.00;1.00;;;;;24.13;86.14;101832.44;5031989;28;65272;-74
2023/06/26 10:19:10;;;;;;;;;2.00;2.00;;;;;24.15;86.45;101826.09;5037935;28;46638;-76
2023/06/26 10:21:38;;;;;;;;;1.00;1.00;;;;;24.23;86.27;101833.94;5056821;28;45439;-76
2023/06/26 10:24:05;;;;;;;;;3.00;2.33;;;;;24.35;85.47;101836.31;5036204;28;45471;-76
2023/06/26 10:26:32;;;;;;;;;3.33;2.00;;;;;24.50;84.14;101837.66;5038913;28;45526;-73
2023/06/26 10:28:57;;;;;;;;;1.33;1.33;;;;;24.53;83.39;101835.75;5036127;28;47315;-74
2023/06/26 10:31:26;;;;;;;;;3.00;2.00;;;;;24.52;83.94;101842.09;5056107;28;64771;-74
2023/06/26 10:33:54;;;;;;;;;4.33;1.33;;;;;24.53;83.17;101835.75;5037618;28;45586;-74
2023/06/26 10:36:27;;;;;;;;;1.00;1.00;;;;;24.59;81.79;101834.66;5033050;28;45513;-74
2023/06/26 10:38:56;;;;;;;;;2.00;2.00;;;;;24.63;79.58;101819.25;5054549;28;46677;-74
2023/06/26 10:41:23;;;;;;;;;3.00;2.00;;;;;24.81;79.35;101834.88;5055352;28;45525;-74
2023/06/26 10:44:07;;;;;;;;;2.00;1.33;;;;;24.97;76.86;101828.03;5056545;28;45490;-75
2023/06/26 10:46:55;;;;;;;;;2.33;1.33;;;;;25.03;74.94;101837.75;5049166;28;45564;-75
2023/06/26 10:49:24;;;;;;;;;4.00;2.00;;;;;24.98;75.20;101832.53;5053929;28;46675;-74
2023/06/26 10:51:50;;;;;;;;;19.00;13.00;;;;;24.91;76.22;101827.34;5054165;28;45609;-75
2023/06/26 10:54:18;;;;;;;;;8.33;8.33;;;;;24.81;77.06;101832.16;5053479;28;45443;-74
2023/06/26 10:56:46;;;;;;;;;5.67;5.67;;;;;24.89;77.33;101843.63;5055162;28;45642;-73
2023/06/26 10:59:21;;;;;;;;;20.33;16.67;;;;;24.99;76.07;101839.69;5055629;28;46540;-77
2023/06/26 11:02:01;;;;;;;;;8.00;8.00;;;;;25.07;76.31;101826.81;5056945;28;45362;-77
2023/06/26 11:04:56;;;;;;;;;3.33;3.00;;;;;25.10;76.68;101820.44;5053086;28;45343;-76
2023/06/26 11:07:25;;;;;;;;;3.00;3.00;;;;;25.08;76.27;101844.78;5020991;28;47131;-77
2023/06/26 11:09:57;;;;;;;;;6.00;2.33;;;;;25.11;75.48;101832.13;5036710;28;48112;-76
2023/06/26 11:12:37;;;;;;;;;24.33;22.33;;;;;25.21;74.83;101828.19;5052086;28;47488;-76
2023/06/26 11:15:06;;;;;;;;;18.00;15.33;;;;;25.32;72.45;101826.88;5055647;28;45312;-74
2023/06/26 11:17:32;;;;;;;;;29.00;25.00;;;;;25.49;70.18;101820.88;5052161;28;45541;-76